Time;durP1;ratioP1;P1;durP2;ratioP2;P2;SDS_P1;SDS_P2;PMS_P1;PMS_P2;Temp;Humidity;BMP_temperature;BMP_pressure;BME280_temperature;BME280_humidity;BME280_pressure;Samples;Min_cycle;Max_cycle;Signal;HPM_P1;HPM_P2
2023/12/27 15:05:20;;;;;;;12.77;5.53;;;5.60;99.90;;;;;;5099837;27;20113;-54
2023/12/27 15:07:46;;;;;;;16.73;7.20;;;5.30;99.90;;;;;;5095801;28;20548;-58
2023/12/27 15:10:11;;;;;;;13.35;5.75;;;5.30;99.90;;;;;;5110961;28;20038;-57
2023/12/27 15:12:37;;;;;;;20.80;7.25;;;5.40;99.90;;;;;;5113243;28;20024;-58
2023/12/27 15:15:04;;;;;;;13.93;6.50;;;5.30;99.90;;;;;;5109595;28;20046;-53
2023/12/27 15:17:31;;;;;;;15.47;5.37;;;5.10;99.90;;;;;;5115207;28;20108;-58
2023/12/27 15:19:56;;;;;;;19.60;8.63;;;5.00;99.90;;;;;;5117448;28;20111;-54
2023/12/27 15:22:22;;;;;;;21.50;9.30;;;4.90;99.90;;;;;;5116251;28;20172;-55
2023/12/27 15:24:48;;;;;;;21.23;9.02;;;4.90;99.90;;;;;;5117173;28;20499;-58
2023/12/27 15:27:13;;;;;;;17.42;9.43;;;4.80;99.90;;;;;;5114166;28;20023;-58
2023/12/27 15:29:39;;;;;;;18.45;8.85;;;4.70;99.90;;;;;;5098382;28;20111;-56
2023/12/27 15:32:05;;;;;;;20.17;9.40;;;4.70;99.90;;;;;;5116355;28;20027;-56
2023/12/27 15:34:31;;;;;;;28.90;13.23;;;4.50;99.90;;;;;;5117343;28;20027;-53
2023/12/27 15:36:57;;;;;;;26.73;13.88;;;4.30;99.90;;;;;;5113927;28;20034;-55
2023/12/27 15:39:23;;;;;;;28.27;14.25;;;4.10;99.90;;;;;;5116980;28;20126;-56
2023/12/27 15:41:49;;;;;;;24.67;13.02;;;4.10;99.90;;;;;;5117702;28;20586;-58
2023/12/27 15:44:14;;;;;;;23.00;12.40;;;4.20;99.90;;;;;;5117121;28;20047;-55
2023/12/27 15:46:40;;;;;;;25.55;12.20;;;4.20;99.90;;;;;;5115309;28;20085;-55
2023/12/27 15:49:06;;;;;;;28.33;12.27;;;4.10;99.90;;;;;;5117287;28;20020;-57
2023/12/27 15:51:35;;;;;;;40.55;16.20;;;4.20;99.90;;;;;;5093805;28;20030;-59
2023/12/27 15:54:04;;;;;;;27.75;13.02;;;4.10;99.90;;;;;;5091721;28;20127;-52
2023/12/27 15:56:35;;;;;;;23.55;12.25;;;3.90;99.90;;;;;;5092626;28;20031;-57
2023/12/27 15:59:02;;;;;;;37.28;16.02;;;3.70;99.90;;;;;;5078317;28;20028;-55
2023/12/27 16:01:29;;;;;;;46.40;20.58;;;3.60;99.90;;;;;;5096998;28;20028;-58
2023/12/27 16:03:57;;;;;;;53.03;21.80;;;3.70;99.90;;;;;;5084551;28;20070;-55
2023/12/27 16:06:25;;;;;;;51.30;23.23;;;3.70;99.90;;;;;;5114287;28;20092;-54
2023/12/27 16:08:51;;;;;;;48.40;22.70;;;3.60;99.90;;;;;;5115675;28;20051;-54
2023/12/27 16:11:17;;;;;;;59.03;26.10;;;3.50;99.90;;;;;;5116383;28;20063;-58
2023/12/27 16:13:43;;;;;;;141.20;53.95;;;3.30;99.90;;;;;;5116639;28;20046;-57
2023/12/27 16:16:10;;;;;;;141.02;54.08;;;3.10;99.90;;;;;;5103528;27;20031;-54
2023/12/27 16:18:36;;;;;;;134.90;53.40;;;2.90;99.90;;;;;;5080912;28;20143;-54
2023/12/27 16:21:03;;;;;;;131.05;52.60;;;2.90;99.90;;;;;;5082353;28;20065;-55
2023/12/27 16:23:28;;;;;;;137.02;52.90;;;2.80;99.90;;;;;;5081986;28;21524;-56
2023/12/27 16:25:55;;;;;;;123.78;49.67;;;2.80;99.90;;;;;;5079340;28;20051;-56
2023/12/27 16:28:21;;;;;;;113.63;51.45;;;2.90;99.90;;;;;;5081202;28;20028;-55
2023/12/27 16:30:49;;;;;;;123.95;51.50;;;2.90;99.90;;;;;;5080434;28;20356;-57
2023/12/27 16:33:16;;;;;;;119.25;51.38;;;2.90;99.90;;;;;;5083159;28;20059;-57
2023/12/27 16:35:42;;;;;;;113.60;49.63;;;2.70;99.90;;;;;;5086706;28;20036;-57
2023/12/27 16:38:09;;;;;;;123.95;52.42;;;2.70;99.90;;;;;;5087345;28;20480;-52
2023/12/27 16:40:34;;;;;;;120.18;53.03;;;2.80;99.90;;;;;;5067698;28;20024;-55
2023/12/27 16:43:00;;;;;;;119.05;51.58;;;2.70;99.90;;;;;;5083354;28;21130;-58
2023/12/27 16:45:28;;;;;;;110.30;48.92;;;2.60;99.90;;;;;;5081307;28;20947;-56
2023/12/27 16:47:59;;;;;;;103.80;48.63;;;2.60;99.90;;;;;;5079522;28;20387;-55
2023/12/27 16:50:30;;;;;;;115.43;49.17;;;2.50;99.90;;;;;;5081308;28;20036;-54
2023/12/27 16:52:57;;;;;;;100.38;45.60;;;2.50;99.90;;;;;;5080863;28;20455;-55
2023/12/27 16:55:23;;;;;;;95.00;44.08;;;2.60;99.90;;;;;;5081270;28;20024;-53
2023/12/27 16:57:49;;;;;;;102.93;44.80;;;2.50;99.90;;;;;;5059429;28;20122;-54
2023/12/27 17:00:15;;;;;;;99.80;43.00;;;2.50;99.90;;;;;;5081840;28;20071;-53
2023/12/27 17:02:42;;;;;;;95.53;42.83;;;2.50;99.90;;;;;;5062837;28;20419;-57
2023/12/27 17:05:11;;;;;;;101.57;39.83;;;2.50;99.90;;;;;;5080015;28;20127;-53
2023/12/27 17:07:51;;;;;;;89.45;37.90;;;2.60;99.90;;;;;;5079357;28;20036;-57
2023/12/27 17:10:17;;;;;;;93.20;40.65;;;2.60;99.90;;;;;;5080125;28;20871;-55
2023/12/27 17:12:43;;;;;;;88.55;36.40;;;2.60;99.90;;;;;;5080949;28;20031;-55
2023/12/27 17:15:10;;;;;;;89.43;36.13;;;2.80;99.90;;;;;;5080167;28;20470;-54
2023/12/27 17:17:36;;;;;;;83.43;36.85;;;2.90;99.90;;;;;;5078400;28;20274;-56
2023/12/27 17:20:03;;;;;;;86.30;36.08;;;2.90;99.90;;;;;;5080995;28;20584;-54
2023/12/27 17:22:32;;;;;;;84.60;35.83;;;2.90;99.90;;;;;;5082384;28;20028;-53
2023/12/27 17:24:58;;;;;;;87.68;34.83;;;2.90;99.90;;;;;;5078555;28;20062;-55
2023/12/27 17:27:25;;;;;;;81.85;34.35;;;2.90;99.90;;;;;;5076553;28;20480;-57
2023/12/27 17:29:51;;;;;;;83.35;38.13;;;3.00;99.90;;;;;;5079174;28;20118;-54
2023/12/27 17:32:18;;;;;;;85.07;41.10;;;2.90;99.90;;;;;;5078507;28;20498;-52
2023/12/27 17:34:44;;;;;;;84.53;41.03;;;2.70;99.90;;;;;;5078266;28;20277;-56
2023/12/27 17:37:10;;;;;;;96.82;46.08;;;2.50;99.90;;;;;;5077532;28;20032;-53
2023/12/27 17:39:36;;;;;;;102.07;44.22;;;2.40;99.90;;;;;;5079850;28;20069;-53
2023/12/27 17:42:04;;;;;;;94.93;43.00;;;2.40;99.90;;;;;;5080819;28;20789;-53
2023/12/27 17:44:30;;;;;;;97.20;43.65;;;2.30;99.90;;;;;;5080682;28;20092;-57
2023/12/27 17:47:02;;;;;;;96.72;44.47;;;2.20;99.90;;;;;;5067973;28;20024;-63
2023/12/27 17:49:32;;;;;;;134.35;57.28;;;2.20;99.90;;;;;;5085858;28;20050;-56
2023/12/27 17:51:59;;;;;;;121.07;53.70;;;2.20;99.90;;;;;;5085108;28;20028;-57
2023/12/27 17:54:25;;;;;;;112.85;48.60;;;2.20;99.90;;;;;;5079685;28;20075;-57
2023/12/27 17:56:51;;;;;;;117.20;54.28;;;2.20;99.90;;;;;;5074540;28;20111;-55
2023/12/27 17:59:20;;;;;;;117.97;57.15;;;2.30;99.90;;;;;;5078916;28;20028;-57
2023/12/27 18:01:45;;;;;;;145.57;67.38;;;2.30;99.90;;;;;;5078425;28;20024;-59
2023/12/27 18:04:12;;;;;;;122.18;57.92;;;2.20;99.90;;;;;;5078204;28;20070;-52
2023/12/27 18:06:38;;;;;;;131.80;57.05;;;2.10;99.90;;;;;;5077019;28;20024;-54
2023/12/27 18:09:04;;;;;;;158.00;67.23;;;2.10;99.90;;;;;;5079302;28;20035;-55
2023/12/27 18:11:34;;;;;;;118.30;51.30;;;2.10;99.90;;;;;;5079160;28;20028;-56
2023/12/27 18:14:00;;;;;;;164.10;68.47;;;2.30;99.90;;;;;;5080328;28;20035;-52
2023/12/27 18:16:27;;;;;;;146.93;60.67;;;2.00;99.90;;;;;;5076493;28;20031;-54
2023/12/27 18:18:53;;;;;;;144.95;66.05;;;1.90;99.90;;;;;;5078184;28;20036;-53
2023/12/27 18:21:20;;;;;;;160.32;68.22;;;1.90;99.90;;;;;;5078937;28;20321;-51
2023/12/27 18:23:45;;;;;;;155.15;66.70;;;1.90;99.90;;;;;;5079028;28;20129;-53
2023/12/27 18:26:11;;;;;;;151.90;64.20;;;1.90;99.90;;;;;;5076888;28;20774;-60
2023/12/27 18:28:37;;;;;;;151.20;67.82;;;1.90;99.90;;;;;;5079332;28;20023;-61
2023/12/27 18:31:02;;;;;;;171.90;69.43;;;1.90;99.90;;;;;;5079416;28;20031;-56
2023/12/27 18:33:28;;;;;;;158.48;68.53;;;2.00;99.90;;;;;;5078461;28;20073;-57
2023/12/27 18:35:57;;;;;;;159.63;71.15;;;1.90;99.90;;;;;;5076837;28;20032;-54
2023/12/27 18:38:23;;;;;;;168.35;70.30;;;1.90;99.90;;;;;;5078497;28;20024;-57
2023/12/27 18:40:49;;;;;;;159.75;68.40;;;2.00;99.90;;;;;;5078820;28;21072;-54
2023/12/27 18:43:15;;;;;;;131.23;60.30;;;2.00;99.90;;;;;;5078398;28;20360;-52
2023/12/27 18:45:46;;;;;;;105.55;44.22;;;2.10;99.90;;;;;;5078168;28;20031;-54
2023/12/27 18:48:13;;;;;;;93.00;38.85;;;2.10;99.90;;;;;;5078819;28;20024;-59
2023/12/27 18:50:39;;;;;;;91.22;37.20;;;2.20;99.90;;;;;;5078622;28;20031;-57
2023/12/27 18:53:04;;;;;;;86.78;36.90;;;2.30;99.90;;;;;;5079007;28;20531;-54
2023/12/27 18:55:30;;;;;;;83.10;35.80;;;2.50;99.90;;;;;;5078687;28;20035;-57
2023/12/27 18:57:56;;;;;;;69.97;30.38;;;2.50;99.90;;;;;;5076389;28;20056;-56
2023/12/27 19:00:23;;;;;;;81.50;31.45;;;2.70;99.90;;;;;;5060924;28;20123;-57
2023/12/27 19:02:48;;;;;;;68.88;29.02;;;2.90;99.90;;;;;;5078067;28;20542;-55
2023/12/27 19:05:14;;;;;;;68.63;28.75;;;2.90;99.90;;;;;;5077525;28;20052;-54
2023/12/27 19:07:40;;;;;;;78.28;28.05;;;3.00;99.90;;;;;;5075675;28;20360;-57
2023/12/27 19:10:05;;;;;;;62.97;27.33;;;3.10;99.90;;;;;;5077606;28;20071;-55
2023/12/27 19:12:31;;;;;;;69.43;26.38;;;3.20;99.90;;;;;;5059794;28;20039;-55
2023/12/27 19:14:57;;;;;;;70.13;28.23;;;3.30;99.90;;;;;;5077710;28;20032;-57
2023/12/27 19:17:22;;;;;;;57.05;26.17;;;3.30;99.90;;;;;;5074671;28;20074;-55
2023/12/27 19:19:48;;;;;;;67.85;25.73;;;3.30;99.90;;;;;;5077817;28;20031;-58
2023/12/27 19:22:14;;;;;;;68.07;27.10;;;3.30;99.90;;;;;;5078548;28;20229;-57
2023/12/27 19:24:40;;;;;;;66.47;28.85;;;3.40;99.90;;;;;;5076981;28;20185;-56
2023/12/27 19:27:05;;;;;;;58.08;25.40;;;3.40;99.90;;;;;;5075657;28;20447;-55
2023/12/27 19:29:31;;;;;;;63.38;25.98;;;3.30;99.90;;;;;;5079217;28;20023;-57
2023/12/27 19:31:57;;;;;;;62.22;24.98;;;3.40;99.90;;;;;;5078978;28;20514;-55
2023/12/27 19:34:23;;;;;;;61.83;24.17;;;3.40;99.90;;;;;;5077334;28;20495;-56
2023/12/27 19:36:49;;;;;;;63.22;25.33;;;3.40;99.90;;;;;;5074925;28;20092;-56
2023/12/27 19:39:22;;;;;;;47.40;21.70;;;3.30;99.90;;;;;;5077028;28;20043;-54
2023/12/27 19:41:48;;;;;;;54.15;20.45;;;3.30;99.90;;;;;;5059376;28;20803;-57
2023/12/27 19:44:14;;;;;;;44.67;20.90;;;3.30;99.90;;;;;;5078083;28;20024;-55
2023/12/27 19:46:40;;;;;;;49.20;21.02;;;3.30;99.90;;;;;;5075407;28;20034;-57
2023/12/27 19:49:06;;;;;;;53.90;22.20;;;3.30;99.90;;;;;;5077619;28;20131;-53
2023/12/27 19:51:35;;;;;;;53.40;22.80;;;3.30;99.90;;;;;;5080799;28;20028;-53
2023/12/27 19:54:00;;;;;;;57.85;24.98;;;3.30;99.90;;;;;;5080961;28;20901;-57
2023/12/27 19:56:27;;;;;;;55.53;23.27;;;3.30;99.90;;;;;;5044327;28;20040;-54
2023/12/27 19:58:54;;;;;;;86.30;39.40;;;3.30;99.90;;;;;;5080727;28;20052;-57
2023/12/27 20:01:23;;;;;;;;;;;3.30;99.90;;;;;;5094116;28;20510;-58
2023/12/27 20:03:49;;;;;;;109.18;49.40;;;3.10;99.90;;;;;;5080545;28;19946;-57
2023/12/27 20:06:15;;;;;;;109.00;48.50;;;2.90;99.90;;;;;;5078144;28;20028;-54
2023/12/27 20:08:43;;;;;;;103.50;49.35;;;2.70;99.90;;;;;;5079481;28;20028;-62
2023/12/27 20:11:11;;;;;;;111.93;47.60;;;2.60;99.90;;;;;;5062346;28;20070;-58
2023/12/27 20:13:39;;;;;;;112.65;50.00;;;2.50;99.90;;;;;;5080567;28;20041;-54
2023/12/27 20:16:09;;;;;;;118.32;53.78;;;2.50;99.90;;;;;;5077080;28;20804;-53
2023/12/27 20:18:34;;;;;;;72.88;31.55;;;2.40;99.90;;;;;;5081263;28;20032;-59
2023/12/27 20:21:02;;;;;;;107.80;47.15;;;2.50;99.90;;;;;;5080846;28;20535;-56
2023/12/27 20:23:28;;;;;;;118.45;48.92;;;2.40;99.90;;;;;;5081645;28;21065;-59
2023/12/27 20:25:54;;;;;;;105.18;44.20;;;2.50;99.90;;;;;;5060152;28;20199;-51
2023/12/27 20:28:19;;;;;;;107.32;43.90;;;2.50;99.90;;;;;;5080468;28;20103;-58
2023/12/27 20:30:46;;;;;;;120.00;53.88;;;2.50;99.90;;;;;;5081406;28;20553;-59
2023/12/27 20:33:12;;;;;;;140.30;61.85;;;2.30;99.90;;;;;;5063308;28;20024;-57
2023/12/27 20:35:38;;;;;;;128.30;56.55;;;2.20;99.90;;;;;;5080110;28;20718;-59
2023/12/27 20:38:04;;;;;;;115.82;49.60;;;1.90;99.90;;;;;;5078226;28;20012;-56
2023/12/27 20:40:30;;;;;;;116.93;55.17;;;1.80;99.90;;;;;;5080336;28;20028;-54
2023/12/27 20:42:56;;;;;;;132.55;63.00;;;1.60;99.90;;;;;;5079507;28;20347;-59
2023/12/27 20:45:22;;;;;;;120.82;53.58;;;1.60;99.90;;;;;;5078944;28;20057;-52
2023/12/27 20:47:48;;;;;;;140.05;56.42;;;1.40;99.90;;;;;;5077699;28;20017;-54
2023/12/27 20:50:17;;;;;;;98.60;45.70;;;1.40;99.90;;;;;;5059929;28;20047;-60
2023/12/27 20:52:42;;;;;;;127.45;55.95;;;1.30;99.90;;;;;;5079806;28;20032;-61
2023/12/27 20:55:09;;;;;;;118.55;55.47;;;1.30;99.90;;;;;;5080097;28;20031;-56
2023/12/27 20:57:35;;;;;;;115.63;53.58;;;1.40;99.90;;;;;;5076286;28;20031;-54
2023/12/27 21:00:01;;;;;;;119.80;52.75;;;1.30;99.90;;;;;;5079212;28;20036;-59
2023/12/27 21:02:28;;;;;;;117.32;50.60;;;1.30;99.90;;;;;;5079421;28;20035;-57
2023/12/27 21:04:55;;;;;;;106.97;49.53;;;1.40;99.90;;;;;;5078615;28;20067;-56
2023/12/27 21:07:22;;;;;;;92.95;42.33;;;1.40;99.90;;;;;;5078073;28;20102;-56
2023/12/27 21:09:48;;;;;;;111.40;46.50;;;1.40;99.90;;;;;;5080589;28;20149;-55
2023/12/27 21:12:14;;;;;;;83.97;34.23;;;1.60;99.90;;;;;;5079464;28;20032;-59
2023/12/27 21:14:39;;;;;;;99.68;39.60;;;1.80;99.90;;;;;;5079452;28;20716;-55
2023/12/27 21:17:05;;;;;;;83.97;37.97;;;2.00;99.90;;;;;;5076784;28;20486;-57
2023/12/27 21:19:31;;;;;;;88.22;37.42;;;1.90;99.90;;;;;;5079019;28;20032;-54
2023/12/27 21:21:57;;;;;;;98.10;41.75;;;2.00;99.90;;;;;;5078801;28;20079;-52
2023/12/27 21:24:22;;;;;;;98.10;41.95;;;2.10;99.90;;;;;;5078519;28;20044;-55
2023/12/27 21:26:48;;;;;;;94.88;43.33;;;2.10;99.90;;;;;;5076983;28;20130;-55
2023/12/27 21:29:14;;;;;;;111.97;48.80;;;2.20;99.90;;;;;;5080856;28;20088;-60
2023/12/27 21:31:39;;;;;;;99.88;43.08;;;2.10;99.90;;;;;;5080365;28;20024;-56
2023/12/27 21:34:07;;;;;;;115.72;47.67;;;2.20;99.90;;;;;;5079605;28;20710;-58
2023/12/27 21:36:34;;;;;;;109.85;49.13;;;2.20;99.90;;;;;;5078707;28;20093;-56
2023/12/27 21:38:59;;;;;;;89.28;37.85;;;2.10;99.90;;;;;;5082311;28;20025;-59
2023/12/27 21:41:27;;;;;;;93.65;39.22;;;2.30;99.90;;;;;;5080559;28;20506;-54
2023/12/27 21:43:57;;;;;;;92.35;43.58;;;2.40;99.90;;;;;;5079776;28;20059;-56
2023/12/27 21:46:33;;;;;;;96.38;39.50;;;2.40;99.90;;;;;;5077067;28;20053;-54
2023/12/27 21:48:59;;;;;;;91.13;38.90;;;2.30;99.90;;;;;;5079959;28;20451;-55
2023/12/27 21:51:27;;;;;;;87.70;40.08;;;2.30;99.90;;;;;;5079377;28;20024;-52
2023/12/27 21:53:53;;;;;;;91.10;40.30;;;2.30;99.90;;;;;;5078015;28;20024;-58
2023/12/27 21:56:29;;;;;;;91.50;41.88;;;2.30;99.90;;;;;;5078064;28;20038;-58
2023/12/27 21:59:02;;;;;;;91.35;41.92;;;2.20;99.90;;;;;;5078958;28;20491;-57
2023/12/27 22:01:30;;;;;;;87.90;37.83;;;2.30;99.90;;;;;;5079033;28;20135;-52
2023/12/27 22:03:57;;;;;;;91.80;38.72;;;2.30;99.90;;;;;;5079880;28;20048;-62
2023/12/27 22:06:23;;;;;;;89.00;39.28;;;2.30;99.90;;;;;;5074674;28;20027;-57
2023/12/27 22:08:49;;;;;;;82.95;38.17;;;2.40;99.90;;;;;;5079229;28;20525;-62
2023/12/27 22:11:15;;;;;;;100.72;45.00;;;2.50;99.90;;;;;;5078289;28;20027;-56
2023/12/27 22:13:42;;;;;;;88.75;41.28;;;2.50;99.90;;;;;;5077952;28;20036;-59
2023/12/27 22:16:12;;;;;;;105.40;44.70;;;2.50;99.90;;;;;;5077652;28;20043;-53
2023/12/27 22:18:38;;;;;;;111.95;46.78;;;2.60;99.90;;;;;;5078551;28;20032;-58
2023/12/27 22:21:05;;;;;;;109.68;50.50;;;2.60;99.90;;;;;;5079122;28;21290;-52
2023/12/27 22:23:31;;;;;;;125.00;55.10;;;2.50;99.90;;;;;;5079477;28;20039;-56
2023/12/27 22:26:01;;;;;;;118.13;54.27;;;2.40;99.90;;;;;;5076738;28;20046;-51
2023/12/27 22:28:27;;;;;;;123.82;51.42;;;2.50;99.90;;;;;;5061656;28;20024;-51
2023/12/27 22:30:53;;;;;;;115.13;49.95;;;2.50;99.90;;;;;;5078748;28;20170;-52
2023/12/27 22:33:19;;;;;;;115.95;51.15;;;2.50;99.90;;;;;;5078464;28;21124;-54
2023/12/27 22:35:44;;;;;;;122.80;51.83;;;2.40;99.90;;;;;;5077355;28;20481;-55
2023/12/27 22:38:10;;;;;;;112.55;51.75;;;2.50;99.90;;;;;;5076399;28;20036;-65
2023/12/27 22:40:36;;;;;;;113.45;51.00;;;2.40;99.90;;;;;;5082569;28;20551;-56
2023/12/27 22:43:03;;;;;;;117.45;52.15;;;2.40;99.90;;;;;;5090660;28;20027;-56
2023/12/27 22:45:29;;;;;;;110.97;49.88;;;2.40;99.90;;;;;;5089714;28;20036;-59
2023/12/27 22:47:54;;;;;;;117.85;55.42;;;2.40;99.90;;;;;;5076209;28;20088;-56
2023/12/27 22:50:20;;;;;;;109.35;54.22;;;2.40;99.90;;;;;;5079219;28;20093;-59
2023/12/27 22:52:46;;;;;;;114.32;54.53;;;2.40;99.90;;;;;;5078376;28;20024;-55
2023/12/27 22:55:12;;;;;;;116.57;52.25;;;2.50;99.90;;;;;;5077404;28;20069;-56
2023/12/27 22:57:37;;;;;;;113.63;51.22;;;2.60;99.90;;;;;;5076758;28;20502;-59
2023/12/27 23:00:10;;;;;;;109.88;51.28;;;2.50;99.90;;;;;;5078768;28;20043;-54
2023/12/27 23:02:36;;;;;;;109.43;53.28;;;2.60;99.90;;;;;;5077034;28;20040;-57
2023/12/27 23:05:02;;;;;;;109.13;52.92;;;2.50;99.90;;;;;;5077416;28;20101;-58
2023/12/27 23:07:28;;;;;;;113.47;54.15;;;2.50;99.90;;;;;;5075550;28;20036;-56
2023/12/27 23:09:54;;;;;;;111.47;53.10;;;2.50;99.90;;;;;;5078059;28;20101;-55
2023/12/27 23:12:19;;;;;;;111.90;52.00;;;2.40;99.90;;;;;;5077659;28;20124;-61
2023/12/27 23:14:45;;;;;;;121.70;57.90;;;2.40;99.90;;;;;;5077259;28;20032;-57
